createdAt,value
2018-05-29T00:00:13.970Z,12.50
2018-05-29T00:02:40.893Z,12.73
2018-05-29T00:05:07.473Z,13.43
2018-05-29T00:07:34.054Z,13.10
2018-05-29T00:10:00.633Z,14.07
2018-05-29T00:12:27.218Z,13.90
2018-05-29T00:14:53.794Z,13.47
2018-05-29T00:17:20.366Z,13.07
2018-05-29T00:19:46.953Z,13.00
2018-05-29T00:22:13.546Z,14.37
2018-05-29T00:24:40.129Z,13.97
2018-05-29T00:27:06.700Z,15.00
2018-05-29T00:29:33.287Z,14.67
2018-05-29T00:31:59.865Z,14.73
2018-05-29T00:34:26.450Z,14.53
2018-05-29T00:36:53.032Z,14.37
2018-05-29T00:39:19.617Z,14.30
2018-05-29T00:41:46.200Z,13.80
2018-05-29T00:44:12.773Z,14.70
2018-05-29T00:46:39.350Z,14.53
2018-05-29T00:49:05.925Z,15.33
2018-05-29T00:51:32.509Z,14.70
2018-05-29T00:53:59.090Z,15.07
2018-05-29T00:56:25.693Z,14.63
2018-05-29T00:58:52.274Z,14.70
2018-05-29T01:01:18.844Z,15.47
2018-05-29T01:03:45.416Z,14.03
2018-05-29T01:06:11.993Z,14.63
2018-05-29T01:08:38.577Z,14.37
2018-05-29T01:11:05.159Z,14.20
2018-05-29T01:13:31.741Z,15.30
2018-05-29T01:15:58.457Z,14.43
2018-05-29T01:18:25.018Z,14.77
2018-05-29T01:20:51.600Z,14.80
2018-05-29T01:23:18.178Z,15.37
2018-05-29T01:25:44.769Z,15.27
2018-05-29T01:28:11.340Z,14.50
2018-05-29T01:30:37.925Z,14.93
2018-05-29T01:33:04.566Z,14.90
2018-05-29T01:35:31.146Z,14.67
2018-05-29T01:37:57.728Z,14.47
2018-05-29T01:40:24.310Z,14.00
2018-05-29T01:42:50.889Z,14.50
2018-05-29T01:45:17.469Z,15.37
2018-05-29T01:47:44.053Z,14.30
2018-05-29T01:50:10.688Z,15.33
2018-05-29T01:52:37.266Z,16.83
2018-05-29T01:55:04.228Z,15.73
2018-05-29T01:57:30.812Z,16.07
2018-05-29T01:59:57.393Z,16.17
2018-05-29T02:02:23.981Z,16.40
2018-05-29T02:04:50.558Z,15.60
2018-05-29T02:07:17.499Z,15.53
2018-05-29T02:09:44.071Z,16.20
2018-05-29T02:12:10.646Z,15.57
2018-05-29T02:14:37.226Z,14.87
2018-05-29T02:17:03.844Z,15.00
2018-05-29T02:19:30.758Z,15.50
2018-05-29T02:21:57.409Z,15.50
2018-05-29T02:24:23.989Z,15.03
2018-05-29T02:26:50.601Z,15.80
2018-05-29T02:29:17.577Z,15.60
2018-05-29T02:31:44.149Z,15.20
2018-05-29T02:34:10.728Z,15.03
2018-05-29T02:36:37.379Z,14.97
2018-05-29T02:39:03.935Z,15.17
2018-05-29T02:41:30.521Z,15.40
2018-05-29T02:43:57.094Z,13.80
2018-05-29T02:46:23.674Z,15.10
2018-05-29T02:48:50.250Z,15.43
2018-05-29T02:51:16.834Z,14.87
2018-05-29T02:53:43.405Z,15.00
2018-05-29T02:56:10.005Z,15.57
2018-05-29T02:58:36.573Z,15.40
2018-05-29T03:01:03.178Z,15.83
2018-05-29T03:03:29.765Z,15.40
2018-05-29T03:05:56.342Z,14.93
2018-05-29T03:08:22.922Z,15.50
2018-05-29T03:10:49.499Z,15.60
2018-05-29T03:13:16.077Z,16.17
2018-05-29T03:15:42.658Z,15.93
2018-05-29T03:18:09.273Z,14.67
2018-05-29T03:20:35.866Z,16.00
2018-05-29T03:23:02.445Z,16.10
2018-05-29T03:25:29.027Z,15.00
2018-05-29T03:27:55.609Z,15.97
2018-05-29T03:30:22.189Z,14.90
2018-05-29T03:32:48.769Z,15.00
2018-05-29T03:35:15.346Z,15.57
2018-05-29T03:37:41.945Z,15.03
2018-05-29T03:40:08.515Z,15.23
2018-05-29T03:42:35.097Z,15.10
2018-05-29T03:45:01.678Z,15.60
2018-05-29T03:47:28.261Z,15.43
2018-05-29T03:49:54.837Z,15.20
2018-05-29T03:52:21.444Z,14.90
2018-05-29T03:54:48.018Z,15.43
2018-05-29T03:57:14.594Z,15.73
2018-05-29T03:59:41.183Z,14.80
2018-05-29T04:02:07.770Z,15.50
2018-05-29T04:04:34.349Z,14.80
2018-05-29T04:07:00.925Z,14.90
2018-05-29T04:09:27.583Z,14.73
2018-05-29T04:11:54.088Z,14.30
2018-05-29T04:14:20.674Z,14.80
2018-05-29T04:16:47.255Z,14.87
2018-05-29T04:19:13.830Z,14.90
2018-05-29T04:21:40.417Z,15.20
2018-05-29T04:24:06.993Z,15.37
2018-05-29T04:26:33.580Z,15.10
2018-05-29T04:29:00.161Z,15.27
2018-05-29T04:31:26.749Z,14.87
2018-05-29T04:33:53.341Z,15.30
2018-05-29T04:36:19.961Z,16.13
2018-05-29T04:38:46.530Z,14.77
2018-05-29T04:41:13.129Z,16.10
2018-05-29T04:43:39.723Z,16.63
2018-05-29T04:46:06.290Z,15.73
2018-05-29T04:48:32.875Z,16.60
2018-05-29T04:50:59.445Z,17.03
2018-05-29T04:53:26.021Z,15.80
2018-05-29T04:55:52.597Z,16.63
2018-05-29T04:58:19.189Z,16.33
2018-05-29T05:00:45.761Z,16.73
2018-05-29T05:03:12.339Z,19.60
2018-05-29T05:05:38.936Z,17.17
2018-05-29T05:08:05.511Z,15.30
2018-05-29T05:10:32.107Z,14.70
2018-05-29T05:12:58.689Z,14.60
2018-05-29T05:15:25.272Z,14.60
2018-05-29T05:17:51.872Z,14.40
2018-05-29T05:20:18.464Z,15.17
2018-05-29T05:22:45.022Z,15.30
2018-05-29T05:25:11.593Z,14.70
2018-05-29T05:27:38.211Z,15.10
2018-05-29T05:30:04.831Z,15.57
2018-05-29T05:32:31.357Z,15.70
2018-05-29T05:34:57.929Z,14.70
2018-05-29T05:37:24.513Z,15.03
2018-05-29T05:39:51.095Z,14.93
2018-05-29T05:42:17.966Z,15.47
2018-05-29T05:44:44.549Z,15.80
2018-05-29T05:47:11.130Z,15.30
2018-05-29T05:49:37.705Z,15.43
2018-05-29T05:52:04.291Z,15.70
2018-05-29T05:54:30.886Z,15.00
2018-05-29T05:56:57.462Z,14.50
2018-05-29T05:59:24.041Z,15.30
2018-05-29T06:01:50.654Z,14.53
2018-05-29T06:04:17.249Z,14.80
2018-05-29T06:06:43.822Z,13.90
2018-05-29T06:09:10.398Z,14.03
2018-05-29T06:11:36.981Z,13.83
2018-05-29T06:14:03.558Z,13.50
2018-05-29T06:16:30.138Z,12.67
2018-05-29T06:18:56.745Z,13.27
2018-05-29T06:21:23.330Z,12.87
2018-05-29T06:23:49.905Z,12.27
2018-05-29T06:26:16.514Z,13.00
2018-05-29T06:28:43.087Z,12.80
2018-05-29T06:31:09.666Z,12.50
2018-05-29T06:33:36.241Z,14.00
2018-05-29T06:36:02.844Z,13.50
2018-05-29T06:38:29.425Z,12.90
2018-05-29T06:40:55.994Z,12.57
2018-05-29T06:43:22.585Z,12.77
2018-05-29T06:45:49.161Z,12.80
2018-05-29T06:48:15.741Z,12.73
2018-05-29T06:50:42.388Z,12.90
2018-05-29T06:53:08.963Z,12.90
2018-05-29T06:55:35.553Z,12.97
2018-05-29T06:58:02.129Z,13.10
2018-05-29T07:00:28.719Z,13.23
2018-05-29T07:02:55.443Z,13.10
2018-05-29T07:05:22.084Z,13.00
2018-05-29T07:07:48.753Z,13.50
2018-05-29T07:10:15.402Z,12.80
2018-05-29T07:12:42.125Z,13.60
2018-05-29T07:15:08.682Z,13.43
2018-05-29T07:17:35.269Z,13.00
2018-05-29T07:20:01.870Z,13.40
2018-05-29T07:22:28.471Z,13.10
2018-05-29T07:24:57.056Z,12.73
2018-05-29T07:27:23.682Z,12.80
2018-05-29T07:29:50.269Z,13.87
2018-05-29T07:32:16.902Z,13.17
2018-05-29T07:34:43.489Z,12.97
2018-05-29T07:37:10.065Z,11.90
2018-05-29T07:39:36.674Z,13.27
2018-05-29T07:42:03.237Z,13.00
2018-05-29T07:44:29.862Z,13.27
2018-05-29T07:46:56.454Z,13.30
2018-05-29T07:49:23.041Z,14.80
2018-05-29T07:51:49.613Z,16.80
2018-05-29T07:54:16.203Z,15.97
2018-05-29T07:56:42.781Z,12.67
2018-05-29T07:59:09.361Z,17.47
2018-05-29T08:01:35.966Z,17.40
2018-05-29T08:04:02.549Z,12.73
2018-05-29T08:06:29.146Z,14.83
2018-05-29T08:08:55.709Z,12.90
2018-05-29T08:11:22.288Z,12.43
2018-05-29T08:13:48.877Z,12.50
2018-05-29T08:16:15.480Z,13.20
2018-05-29T08:18:42.360Z,12.93
2018-05-29T08:21:09.048Z,13.00
2018-05-29T08:23:35.605Z,13.37
2018-05-29T08:26:02.198Z,13.30
2018-05-29T08:28:28.775Z,13.17
2018-05-29T08:30:55.356Z,12.10
2018-05-29T08:33:21.933Z,13.33
2018-05-29T08:35:48.580Z,13.00
2018-05-29T08:38:15.165Z,12.60
2018-05-29T08:40:41.781Z,13.57
2018-05-29T08:43:08.353Z,12.63
2018-05-29T08:45:34.949Z,13.17
2018-05-29T08:48:01.537Z,13.00
2018-05-29T08:50:28.145Z,13.73
2018-05-29T08:52:54.733Z,13.27
2018-05-29T08:55:21.306Z,13.07
2018-05-29T08:57:47.914Z,13.40
2018-05-29T09:00:14.485Z,13.30
2018-05-29T09:02:41.118Z,13.07
2018-05-29T09:05:07.702Z,13.50
2018-05-29T09:07:34.323Z,13.97
2018-05-29T09:10:03.698Z,13.00
2018-05-29T09:12:30.352Z,14.40
2018-05-29T09:14:56.929Z,13.10
2018-05-29T09:17:23.507Z,13.40
2018-05-29T09:19:50.135Z,13.60
2018-05-29T09:22:16.690Z,13.67
2018-05-29T09:24:43.281Z,13.27
2018-05-29T09:27:09.869Z,12.90
2018-05-29T09:29:36.518Z,13.20
2018-05-29T09:32:03.093Z,13.17
2018-05-29T09:34:32.788Z,13.10
2018-05-29T09:37:02.400Z,13.80
2018-05-29T09:39:29.776Z,13.10
2018-05-29T09:41:57.236Z,13.70
2018-05-29T09:44:23.868Z,13.67
2018-05-29T09:46:53.743Z,12.90
2018-05-29T09:49:20.540Z,14.10
2018-05-29T09:51:47.233Z,13.77
2018-05-29T09:54:17.011Z,14.27
2018-05-29T09:56:46.037Z,14.03
2018-05-29T09:59:12.670Z,13.50
2018-05-29T10:01:39.319Z,12.80
2018-05-29T10:04:06.299Z,13.70
2018-05-29T10:06:33.333Z,13.57
2018-05-29T10:09:00.204Z,14.50
2018-05-29T10:11:27.734Z,13.50
2018-05-29T10:13:56.579Z,13.63
2018-05-29T10:16:23.268Z,14.07
2018-05-29T10:18:50.676Z,14.03
2018-05-29T10:21:19.290Z,14.30
2018-05-29T10:23:46.541Z,13.37
2018-05-29T10:26:13.361Z,14.40
2018-05-29T10:28:41.013Z,14.67
2018-05-29T10:31:08.296Z,13.83
2018-05-29T10:33:35.009Z,14.27
2018-05-29T10:36:01.806Z,13.50
2018-05-29T10:38:31.704Z,13.87
2018-05-29T10:43:33.528Z,14.03
2018-05-29T10:46:02.953Z,13.43
2018-05-29T10:48:29.548Z,13.30
2018-05-29T10:50:56.989Z,13.10
2018-05-29T10:53:25.620Z,14.47
2018-05-29T10:55:57.010Z,14.00
2018-05-29T10:58:24.320Z,13.87
2018-05-29T11:00:53.378Z,13.73
2018-05-29T11:03:20.052Z,13.30
2018-05-29T11:05:46.622Z,13.57
2018-05-29T11:10:46.456Z,12.57
2018-05-29T11:13:14.305Z,13.93
2018-05-29T11:15:43.608Z,13.57
2018-05-29T11:18:10.311Z,14.20
2018-05-29T11:20:42.276Z,13.90
2018-05-29T11:23:13.594Z,13.20
2018-05-29T11:28:53.845Z,13.97
2018-05-29T11:31:20.795Z,14.97
2018-05-29T11:33:48.631Z,14.23
2018-05-29T11:36:15.201Z,17.60
2018-05-29T11:39:07.728Z,18.20
2018-05-29T11:41:50.346Z,12.60
2018-05-29T11:44:21.985Z,12.30
2018-05-29T11:46:49.079Z,16.40
2018-05-29T11:49:15.814Z,13.60
2018-05-29T11:51:46.982Z,13.30
2018-05-29T11:54:14.200Z,13.30
2018-05-29T11:56:43.761Z,12.57
2018-05-29T11:59:19.164Z,13.40
2018-05-29T12:01:49.481Z,13.53
2018-05-29T12:04:18.701Z,13.43
2018-05-29T12:06:45.559Z,13.43
2018-05-29T12:09:15.045Z,12.57
2018-05-29T12:14:54.447Z,13.37
2018-05-29T12:17:30.472Z,13.07
2018-05-29T12:36:48.558Z,12.90
2018-05-29T12:39:15.142Z,12.80
2018-05-29T12:41:41.811Z,13.00
2018-05-29T12:46:55.113Z,13.27
2018-05-29T12:51:58.714Z,13.10
2018-05-29T12:54:27.725Z,13.40
2018-05-29T12:56:56.842Z,13.87
2018-05-29T12:59:24.927Z,12.27
2018-05-29T13:01:55.261Z,12.90
2018-05-29T13:04:22.126Z,13.03
2018-05-29T13:06:49.149Z,12.60
2018-05-29T13:09:20.438Z,12.40
2018-05-29T13:11:54.810Z,12.53
2018-05-29T13:14:43.897Z,12.30
2018-05-29T13:17:23.917Z,11.87
2018-05-29T13:20:01.755Z,12.33
2018-05-29T13:22:44.673Z,11.37
2018-05-29T13:25:11.257Z,11.80
2018-05-29T13:30:45.817Z,11.50
2018-05-29T13:33:13.394Z,11.43
2018-05-29T13:35:39.977Z,11.10
2018-05-29T13:38:08.525Z,11.80
2018-05-29T13:43:24.798Z,11.37
2018-05-29T13:45:51.477Z,11.30
2018-05-29T13:48:18.028Z,11.30
2018-05-29T13:50:44.606Z,11.90
2018-05-29T13:53:11.209Z,12.23
2018-05-29T13:55:37.797Z,12.30
2018-05-29T13:58:06.595Z,12.20
2018-05-29T14:00:33.645Z,11.43
2018-05-29T14:03:00.226Z,12.53
2018-05-29T14:05:30.542Z,11.10
2018-05-29T14:07:59.263Z,6.87
2018-05-29T14:13:07.393Z,5.43
2018-05-29T14:15:41.591Z,6.30
2018-05-29T14:18:08.150Z,5.47
2018-05-29T14:20:35.487Z,4.63
2018-05-29T14:23:02.063Z,4.40
2018-05-29T14:25:28.633Z,3.93
2018-05-29T14:27:55.558Z,3.70
2018-05-29T14:30:22.135Z,3.33
2018-05-29T14:32:48.724Z,4.07
2018-05-29T14:35:15.303Z,3.90
2018-05-29T14:37:41.880Z,4.00
2018-05-29T14:40:08.444Z,4.00
2018-05-29T14:42:35.303Z,4.00
2018-05-29T14:45:01.874Z,3.70
2018-05-29T14:47:28.433Z,4.00
2018-05-29T14:49:55.062Z,3.97
2018-05-29T14:52:21.747Z,4.00
2018-05-29T14:54:48.209Z,4.10
2018-05-29T14:57:14.779Z,3.90
2018-05-29T14:59:41.383Z,3.90
2018-05-29T15:02:07.942Z,4.17
2018-05-29T15:04:34.514Z,4.70
2018-05-29T15:07:01.085Z,3.97
2018-05-29T15:09:27.768Z,4.00
2018-05-29T15:11:54.349Z,4.60
2018-05-29T15:14:20.916Z,4.70
2018-05-29T15:16:47.508Z,4.70
2018-05-29T15:19:14.110Z,5.50
2018-05-29T15:21:40.693Z,5.17
2018-05-29T15:24:07.294Z,5.40
2018-05-29T15:26:33.861Z,5.10
2018-05-29T15:29:00.434Z,5.37
2018-05-29T15:31:27.009Z,5.00
2018-05-29T15:33:53.593Z,5.27
2018-05-29T15:36:20.237Z,5.40
2018-05-29T15:38:46.809Z,5.43
2018-05-29T15:41:13.379Z,5.43
2018-05-29T15:43:39.961Z,5.60
2018-05-29T15:46:06.537Z,5.63
2018-05-29T15:48:33.118Z,6.10
2018-05-29T15:50:59.705Z,5.70
2018-05-29T15:53:26.639Z,5.70
2018-05-29T15:55:53.141Z,5.70
2018-05-29T15:58:19.761Z,5.57
2018-05-29T16:00:46.457Z,5.40
2018-05-29T16:03:13.021Z,6.10
2018-05-29T16:05:39.625Z,5.97
2018-05-29T16:08:06.178Z,6.40
2018-05-29T16:10:33.087Z,6.10
2018-05-29T16:12:59.665Z,6.50
2018-05-29T16:15:28.142Z,5.97
2018-05-29T16:17:54.744Z,6.63
2018-05-29T16:20:21.306Z,6.53
2018-05-29T16:22:47.897Z,7.03
2018-05-29T16:25:15.425Z,7.80
2018-05-29T16:27:42.038Z,8.23
2018-05-29T16:30:08.621Z,8.50
2018-05-29T16:32:35.226Z,9.50
2018-05-29T16:35:01.873Z,9.27
2018-05-29T16:37:28.447Z,9.17
2018-05-29T16:39:55.029Z,8.63
2018-05-29T16:42:22.066Z,9.50
2018-05-29T16:44:48.672Z,9.40
2018-05-29T16:47:15.241Z,9.40
2018-05-29T16:49:41.845Z,9.90
2018-05-29T16:52:09.980Z,10.07
2018-05-29T16:54:36.571Z,9.90
2018-05-29T16:57:06.073Z,10.53
2018-05-29T16:59:33.554Z,11.23
2018-05-29T17:02:00.141Z,11.13
2018-05-29T17:04:26.764Z,11.30
2018-05-29T17:06:53.337Z,10.70
2018-05-29T17:09:19.928Z,10.80
2018-05-29T17:11:46.509Z,10.60
2018-05-29T17:14:13.120Z,10.60
2018-05-29T17:16:41.685Z,11.70
2018-05-29T17:19:08.413Z,11.83
2018-05-29T17:21:35.041Z,11.57
2018-05-29T17:24:01.626Z,12.10
2018-05-29T17:26:30.690Z,12.17
2018-05-29T17:28:57.241Z,12.20
2018-05-29T17:31:23.827Z,12.80
2018-05-29T17:33:50.401Z,12.43
2018-05-29T17:36:17.010Z,12.90
2018-05-29T17:38:43.578Z,12.93
2018-05-29T17:41:10.189Z,13.93
2018-05-29T17:43:36.766Z,14.63
2018-05-29T17:46:03.352Z,14.23
2018-05-29T17:48:29.987Z,14.60
2018-05-29T17:50:56.653Z,14.90
2018-05-29T17:53:23.506Z,14.87
2018-05-29T17:55:50.101Z,14.73
2018-05-29T17:58:16.821Z,15.63
2018-05-29T18:00:43.593Z,16.33
2018-05-29T18:03:10.185Z,15.30
2018-05-29T18:05:36.773Z,14.80
2018-05-29T18:08:03.370Z,14.50
2018-05-29T18:10:29.945Z,13.60
2018-05-29T18:12:56.527Z,13.97
2018-05-29T18:15:23.107Z,12.07
2018-05-29T18:17:49.692Z,11.93
2018-05-29T18:20:16.275Z,13.10
2018-05-29T18:22:42.854Z,12.40
2018-05-29T18:25:09.429Z,13.07
2018-05-29T18:27:36.006Z,11.73
2018-05-29T18:30:02.597Z,12.20
2018-05-29T18:32:29.178Z,11.80
2018-05-29T18:34:55.772Z,11.53
2018-05-29T18:37:22.341Z,12.20
2018-05-29T18:39:48.917Z,11.90
2018-05-29T18:42:15.504Z,11.27
2018-05-29T18:44:42.083Z,11.50
2018-05-29T18:47:09.017Z,11.63
2018-05-29T18:49:35.607Z,10.80
2018-05-29T18:52:02.203Z,11.67
2018-05-29T18:54:28.768Z,10.87
2018-05-29T18:56:55.346Z,11.13
2018-05-29T18:59:21.929Z,10.90
2018-05-29T19:01:48.505Z,10.40
2018-05-29T19:04:15.101Z,11.23
2018-05-29T19:06:41.721Z,11.80
2018-05-29T19:09:08.288Z,11.90
2018-05-29T19:11:34.958Z,12.40
2018-05-29T19:14:01.575Z,12.20
2018-05-29T19:16:28.163Z,12.03
2018-05-29T19:18:56.484Z,11.70
2018-05-29T19:21:25.550Z,12.17
2018-05-29T19:23:52.259Z,11.60
2018-05-29T19:26:19.065Z,12.97
2018-05-29T19:28:45.683Z,12.40
2018-05-29T19:31:12.238Z,13.20
2018-05-29T19:33:38.857Z,12.30
2018-05-29T19:36:06.130Z,11.90
2018-05-29T19:38:33.032Z,12.40
2018-05-29T19:41:00.361Z,12.40
2018-05-29T19:43:29.797Z,12.50
2018-05-29T19:45:57.499Z,12.60
2018-05-29T19:48:28.407Z,13.10
2018-05-29T19:50:55.341Z,13.30
2018-05-29T19:53:25.568Z,12.43
2018-05-29T19:55:59.776Z,13.20
2018-05-29T19:58:26.790Z,13.00
2018-05-29T20:00:56.081Z,13.20
2018-05-29T20:03:37.453Z,13.50
2018-05-29T20:06:04.799Z,13.00
2018-05-29T20:08:31.456Z,12.10
2018-05-29T20:10:58.025Z,12.13
2018-05-29T20:13:24.674Z,14.93
2018-05-29T20:15:51.249Z,14.93
2018-05-29T20:18:18.031Z,13.43
2018-05-29T20:20:44.631Z,14.17
2018-05-29T20:23:11.226Z,13.67
2018-05-29T20:25:37.806Z,14.07
2018-05-29T20:28:04.414Z,13.60
2018-05-29T20:30:31.001Z,13.83
2018-05-29T20:32:57.601Z,13.07
2018-05-29T20:35:24.194Z,13.50
2018-05-29T20:37:50.777Z,13.20
2018-05-29T20:40:17.381Z,13.47
2018-05-29T20:42:43.951Z,13.27
2018-05-29T20:45:10.582Z,13.97
2018-05-29T20:47:37.191Z,12.93
2018-05-29T20:50:03.786Z,12.47
2018-05-29T20:52:30.377Z,13.53
2018-05-29T20:54:56.961Z,13.97
2018-05-29T20:57:23.604Z,13.70
2018-05-29T20:59:50.185Z,14.27
2018-05-29T21:02:16.785Z,13.00
2018-05-29T21:04:43.378Z,13.97
2018-05-29T21:07:09.989Z,12.27
2018-05-29T21:09:36.577Z,13.03
2018-05-29T21:12:03.158Z,12.87
2018-05-29T21:14:29.738Z,13.67
2018-05-29T21:16:56.327Z,13.63
2018-05-29T21:19:22.952Z,13.60
2018-05-29T21:21:49.589Z,12.60
2018-05-29T21:24:16.165Z,12.77
2018-05-29T21:26:42.756Z,13.47
2018-05-29T21:29:09.338Z,12.90
2018-05-29T21:31:35.921Z,13.07
2018-05-29T21:34:02.513Z,12.30
2018-05-29T21:36:29.091Z,12.30
2018-05-29T21:38:55.670Z,12.47
2018-05-29T21:41:22.245Z,13.30
2018-05-29T21:43:49.153Z,12.73
2018-05-29T21:46:15.729Z,12.53
2018-05-29T21:48:42.315Z,12.70
2018-05-29T21:51:08.894Z,12.20
2018-05-29T21:53:35.526Z,12.27
2018-05-29T21:56:02.449Z,11.67
2018-05-29T21:58:29.029Z,11.70
2018-05-29T22:00:55.602Z,12.30
2018-05-29T22:03:22.181Z,11.70
2018-05-29T22:05:48.766Z,11.13
2018-05-29T22:08:15.349Z,10.87
2018-05-29T22:10:41.917Z,10.97
2018-05-29T22:13:08.501Z,10.97
2018-05-29T22:15:35.079Z,11.73
2018-05-29T22:18:01.671Z,11.07
2018-05-29T22:20:28.241Z,10.90
2018-05-29T22:22:54.826Z,10.90
2018-05-29T22:25:21.393Z,11.23
2018-05-29T22:27:47.969Z,11.27
2018-05-29T22:30:14.553Z,10.73
2018-05-29T22:32:41.137Z,10.77
2018-05-29T22:35:07.733Z,11.00
2018-05-29T22:37:34.309Z,10.57
2018-05-29T22:40:00.891Z,11.63
2018-05-29T22:42:27.473Z,11.03
2018-05-29T22:44:54.050Z,10.90
2018-05-29T22:47:20.629Z,11.50
2018-05-29T22:49:47.201Z,11.10
2018-05-29T22:52:13.801Z,10.37
2018-05-29T22:54:40.377Z,10.67
2018-05-29T22:57:06.951Z,9.80
2018-05-29T22:59:34.377Z,10.20
2018-05-29T23:02:00.961Z,9.30
2018-05-29T23:04:27.544Z,9.80
2018-05-29T23:06:54.132Z,9.80
2018-05-29T23:09:20.773Z,8.70
2018-05-29T23:11:47.342Z,9.70
2018-05-29T23:14:13.922Z,10.03
2018-05-29T23:16:40.510Z,9.70
2018-05-29T23:19:07.083Z,9.20
2018-05-29T23:21:33.673Z,9.10
2018-05-29T23:24:00.282Z,8.77
2018-05-29T23:26:27.191Z,8.57
2018-05-29T23:28:53.764Z,8.87
2018-05-29T23:31:20.331Z,9.00
2018-05-29T23:33:46.918Z,8.50
2018-05-29T23:36:13.485Z,9.73
2018-05-29T23:38:40.065Z,8.60
2018-05-29T23:41:06.698Z,8.67
2018-05-29T23:43:33.259Z,8.37
2018-05-29T23:45:59.825Z,8.50
2018-05-29T23:48:26.394Z,8.37
2018-05-29T23:50:52.973Z,8.33
2018-05-29T23:53:19.548Z,8.97
2018-05-29T23:55:46.128Z,8.47
2018-05-29T23:58:12.695Z,8.50
